createdAt,value
2015-09-26T00:00:43.893Z,83.4
2015-09-26T00:01:44.082Z,83.8
2015-09-26T00:02:43.788Z,83.9
2015-09-26T00:03:43.744Z,83.9
2015-09-26T00:04:43.684Z,83.9
2015-09-26T00:05:43.641Z,83.9
2015-09-26T00:06:43.612Z,83.8
2015-09-26T00:07:43.551Z,83.6
2015-09-26T00:08:43.493Z,83.1
2015-09-26T00:09:43.667Z,83.1
2015-09-26T00:10:43.388Z,83.6
2015-09-26T00:11:43.329Z,83.2
2015-09-26T00:12:42.565Z,83.5
2015-09-26T00:13:43.240Z,83.2
2015-09-26T00:14:43.196Z,83.5
2015-09-26T00:15:43.152Z,83.5
2015-09-26T00:16:43.076Z,83.8
2015-09-26T00:17:42.298Z,83.5
2015-09-26T00:18:42.973Z,83.4
2015-09-26T00:19:42.928Z,82.8
2015-09-26T00:20:42.868Z,83.1
2015-09-26T00:21:42.825Z,83.2
2015-09-26T00:22:42.780Z,82.9
2015-09-26T00:23:42.736Z,83.2
2015-09-26T00:24:42.676Z,82.8
2015-09-26T00:25:42.617Z,83.3
2015-09-26T00:26:42.588Z,83.3
2015-09-26T00:27:42.528Z,83.7
2015-09-26T00:28:42.484Z,83.4
2015-09-26T00:29:42.425Z,83.3
2015-09-26T00:30:42.386Z,83.4
2015-09-26T00:31:42.325Z,83.6
2015-09-26T00:32:42.266Z,83
2015-09-26T00:33:42.206Z,83.2
2015-09-26T00:34:42.161Z,83.5
2015-09-26T00:35:42.103Z,83.8
2015-09-26T00:36:42.058Z,83.9
2015-09-26T00:37:42.013Z,84.1
2015-09-26T00:38:41.969Z,84.4
2015-09-26T00:39:41.925Z,83.8
2015-09-26T00:40:41.850Z,84.4
2015-09-26T00:41:41.806Z,84.5
2015-09-26T00:42:41.981Z,84.6
2015-09-26T00:43:41.716Z,84.6
2015-09-26T00:44:41.654Z,84.7
2015-09-26T00:45:41.596Z,84.8
2015-09-26T00:46:41.535Z,84.7
2015-09-26T00:47:41.507Z,85.1
2015-09-26T00:48:41.447Z,85.5
2015-09-26T00:49:41.388Z,85.8
2015-09-26T00:50:41.343Z,85.4
2015-09-26T00:51:41.299Z,85.9
2015-09-26T00:52:41.240Z,86.3
2015-09-26T00:53:41.195Z,85.9
2015-09-26T00:54:41.135Z,85.7
2015-09-26T00:55:41.341Z,85.2
2015-09-26T00:56:41.031Z,85.1
2015-09-26T00:57:40.987Z,85
2015-09-26T00:58:40.943Z,84.7
2015-09-26T00:59:40.884Z,84.6
2015-09-26T01:00:40.839Z,84.8
2015-09-26T01:01:40.795Z,84.6
2015-09-26T01:02:40.751Z,84.9
2015-09-26T01:03:40.675Z,84.9
2015-09-26T01:04:40.632Z,84.9
2015-09-26T01:05:40.571Z,85.1
2015-09-26T01:06:40.528Z,85
2015-09-26T01:07:40.483Z,84.7
2015-09-26T01:08:40.439Z,84.6
2015-09-26T01:09:40.379Z,85
2015-09-26T01:10:40.335Z,85
2015-09-26T01:11:40.275Z,85.1
2015-09-26T01:12:40.231Z,85
2015-09-26T01:13:40.171Z,85
2015-09-26T01:14:40.111Z,85.3
2015-09-26T01:15:40.067Z,85.8
2015-09-26T01:16:40.023Z,85.9
2015-09-26T01:17:39.964Z,85.4
2015-09-26T01:18:39.919Z,85.2
2015-09-26T01:19:39.875Z,85.1
2015-09-26T01:20:39.816Z,84.7
2015-09-26T01:21:39.772Z,85.1
2015-09-26T01:22:39.712Z,85
2015-09-26T01:23:39.667Z,85.2
2015-09-26T01:24:39.858Z,85.3
2015-09-26T01:25:39.563Z,85.2
2015-09-26T01:26:39.519Z,85.4
2015-09-26T01:27:39.460Z,85.4
2015-09-26T01:28:39.416Z,85.3
2015-09-26T01:29:39.372Z,85.4
2015-09-26T01:30:39.311Z,85.4
2015-09-26T01:31:39.267Z,85.2
2015-09-26T01:32:39.208Z,85.4
2015-09-26T01:33:39.383Z,85.4
2015-09-26T01:34:45.416Z,85.4
2015-09-26T01:35:39.075Z,85.4
2015-09-26T01:36:39.031Z,85.5
2015-09-26T01:37:38.221Z,85.9
2015-09-26T01:38:39.161Z,86.2
2015-09-26T01:39:38.882Z,86.3
2015-09-26T01:40:38.824Z,86.1
2015-09-26T01:41:38.779Z,86.2
2015-09-26T01:42:38.719Z,85.9
2015-09-26T01:43:38.675Z,85.6
2015-09-26T01:44:38.615Z,85.4
2015-09-26T01:45:38.571Z,85.6
2015-09-26T01:46:38.527Z,85.3
2015-09-26T01:47:38.452Z,85.3
2015-09-26T01:48:38.424Z,85.5
2015-09-26T01:49:38.598Z,85.7
2015-09-26T01:50:38.318Z,85.1
2015-09-26T01:51:38.275Z,85.3
2015-09-26T01:52:38.228Z,85.3
2015-09-26T01:53:38.154Z,85.3
2015-09-26T01:54:38.109Z,85.5
2015-09-26T01:55:38.048Z,85.8
2015-09-26T01:56:38.004Z,85.9
2015-09-26T01:57:37.960Z,86.1
2015-09-26T01:58:37.901Z,86.5
2015-09-26T01:59:37.840Z,86.6
2015-09-26T02:00:37.797Z,86.6
2015-09-26T02:01:37.737Z,86.7
2015-09-26T02:02:37.693Z,86.5
2015-09-26T02:03:37.648Z,86.3
2015-09-26T02:04:37.589Z,86.1
2015-09-26T02:05:37.545Z,85.8
2015-09-26T02:06:37.485Z,85.3
2015-09-26T02:07:37.441Z,85.3
2015-09-26T02:08:37.381Z,85.1
2015-09-26T02:09:37.337Z,85
2015-09-26T02:10:37.277Z,85.1
2015-09-26T02:11:37.233Z,85.3
2015-09-26T02:12:37.173Z,85.5
2015-09-26T02:13:37.129Z,84.9
2015-09-26T02:14:37.086Z,85
2015-09-26T02:15:37.042Z,85.1
2015-09-26T02:16:36.981Z,84.8
2015-09-26T02:17:36.922Z,85.1
2015-09-26T02:18:36.721Z,84.9
2015-09-26T02:19:36.817Z,85.3
2015-09-26T02:20:36.789Z,85.2
2015-09-26T02:21:36.713Z,85.1
2015-09-26T02:22:36.685Z,85.2
2015-09-26T02:23:36.610Z,85
2015-09-26T02:24:36.566Z,84.8
2015-09-26T02:25:36.505Z,84.8
2015-09-26T02:26:36.477Z,84.7
2015-09-26T02:27:36.397Z,84.4
2015-09-26T02:28:36.369Z,84.3
2015-09-26T02:29:36.309Z,84.4
2015-09-26T02:30:36.250Z,84.6
2015-09-26T02:31:36.205Z,84.8
2015-09-26T02:32:36.145Z,84.5
2015-09-26T02:33:36.101Z,84.6
2015-09-26T02:34:36.057Z,84.5
2015-09-26T02:35:35.997Z,84.2
2015-09-26T02:36:35.937Z,84.4
2015-09-26T02:37:35.908Z,84.5
2015-09-26T02:38:35.099Z,84.5
2015-09-26T02:39:35.805Z,84.3
2015-09-26T02:40:35.745Z,84.6
2015-09-26T02:41:35.702Z,84.3
2015-09-26T02:42:35.641Z,84.3
2015-09-26T02:43:35.582Z,84.4
2015-09-26T02:44:35.538Z,84.2
2015-09-26T02:45:35.478Z,83.7
2015-09-26T02:46:35.449Z,83.6
2015-09-26T02:47:35.389Z,83.6
2015-09-26T02:48:35.329Z,83.2
2015-09-26T02:49:35.285Z,82.9
2015-09-26T02:50:35.241Z,83.3
2015-09-26T02:51:35.181Z,84.1
2015-09-26T02:52:35.137Z,84
2015-09-26T02:53:35.074Z,84.8
2015-09-26T02:54:35.046Z,84.9
2015-09-26T02:55:34.971Z,84.9
2015-09-26T02:56:34.926Z,85.5
2015-09-26T02:57:34.867Z,84.9
2015-09-26T02:58:34.823Z,84.8
2015-09-26T02:59:34.763Z,84.3
2015-09-26T03:00:34.719Z,84.2
2015-09-26T03:01:34.659Z,84.2
2015-09-26T03:02:34.615Z,84.6
2015-09-26T03:03:34.555Z,84.4
2015-09-26T03:04:34.512Z,84.3
2015-09-26T03:05:34.451Z,84
2015-09-26T03:06:34.406Z,84
2015-09-26T03:07:34.348Z,83.7
2015-09-26T03:08:34.303Z,83.5
2015-09-26T03:09:34.242Z,83.5
2015-09-26T03:10:34.198Z,83.3
2015-09-26T03:11:34.155Z,83.8
2015-09-26T03:12:34.095Z,84.2
2015-09-26T03:13:34.036Z,84.5
2015-09-26T03:14:33.992Z,84.3
2015-09-26T03:15:33.947Z,83.8
2015-09-26T03:16:33.887Z,83.6
2015-09-26T03:17:33.843Z,83.9
2015-09-26T03:18:33.783Z,83.8
2015-09-26T03:19:33.724Z,83.6
2015-09-26T03:20:33.680Z,83.5
2015-09-26T03:21:33.635Z,83.7
2015-09-26T03:22:33.575Z,83.3
2015-09-26T03:23:33.516Z,83.3
2015-09-26T03:24:33.472Z,83.2
2015-09-26T03:25:33.428Z,82.9
2015-09-26T03:26:33.367Z,82.8
2015-09-26T03:27:32.573Z,82.9
2015-09-26T03:28:33.280Z,82.9
2015-09-26T03:29:33.205Z,82.9
2015-09-26T03:30:33.160Z,82.7
2015-09-26T03:31:33.335Z,83.1
2015-09-26T03:32:33.056Z,82.7
2015-09-26T03:33:33.230Z,82.6
2015-09-26T03:34:32.952Z,82.6
2015-09-26T03:35:32.892Z,83.2
2015-09-26T03:36:32.849Z,83
2015-09-26T03:37:32.804Z,82.8
2015-09-26T03:38:32.744Z,82.9
2015-09-26T03:39:32.715Z,82.5
2015-09-26T03:40:32.640Z,83
2015-09-26T03:41:32.596Z,83.3
2015-09-26T03:42:32.535Z,82.3
2015-09-26T03:43:32.476Z,83
2015-09-26T03:44:32.432Z,83
2015-09-26T03:45:32.388Z,82.9
2015-09-26T03:46:32.329Z,83
2015-09-26T03:47:32.268Z,82.6
2015-09-26T03:48:32.224Z,82.8
2015-09-26T03:49:32.165Z,82.8
2015-09-26T03:50:32.121Z,82.6
2015-09-26T03:51:32.060Z,82.6
2015-09-26T03:52:32.032Z,82.9
2015-09-26T03:53:31.957Z,83.3
2015-09-26T03:54:31.913Z,83.3
2015-09-26T03:55:31.853Z,83.3
2015-09-26T03:56:31.825Z,82.9
2015-09-26T03:57:31.749Z,82.6
2015-09-26T03:58:31.705Z,82.6
2015-09-26T03:59:31.645Z,82.5
2015-09-26T04:00:31.601Z,82.7
2015-09-26T04:01:31.541Z,83
2015-09-26T04:02:31.497Z,83.1
2015-09-26T04:03:31.453Z,82.7
2015-09-26T04:04:31.390Z,82.2
2015-09-26T04:05:31.331Z,82.1
2015-09-26T04:06:31.286Z,82.2
2015-09-26T04:07:31.242Z,81.7
2015-09-26T04:08:31.183Z,82.4
2015-09-26T04:09:31.138Z,82.5
2015-09-26T04:10:31.078Z,82.6
2015-09-26T04:11:31.019Z,82.5
2015-09-26T04:12:30.974Z,82.1
2015-09-26T04:13:30.915Z,82.1
2015-09-26T04:14:30.871Z,81.8
2015-09-26T04:15:30.811Z,82.1
2015-09-26T04:16:30.986Z,82.1
2015-09-26T04:17:30.708Z,82.6
2015-09-26T04:18:30.663Z,82.6
2015-09-26T04:19:30.603Z,82.9
2015-09-26T04:20:30.558Z,83.5
2015-09-26T04:21:30.514Z,83.3
2015-09-26T04:22:30.439Z,82.4
2015-09-26T04:23:30.395Z,82.2
2015-09-26T04:24:30.335Z,82.3
2015-09-26T04:25:30.291Z,82.3
2015-09-26T04:26:30.247Z,82.3
2015-09-26T04:27:30.188Z,82.4
2015-09-26T04:28:30.128Z,81.9
2015-09-26T04:29:30.083Z,82.3
2015-09-26T04:30:30.024Z,81.9
2015-09-26T04:31:29.980Z,81.2
2015-09-26T04:32:29.936Z,82.5
2015-09-26T04:33:29.876Z,83.8
2015-09-26T04:34:29.832Z,82.6
2015-09-26T04:35:29.772Z,83
2015-09-26T04:36:29.728Z,83
2015-09-26T04:37:29.668Z,82.7
2015-09-26T04:38:29.624Z,82.6
2015-09-26T04:39:29.564Z,82.2
2015-09-26T04:40:29.505Z,82.4
2015-09-26T04:41:29.460Z,82.5
2015-09-26T04:42:29.401Z,82.8
2015-09-26T04:43:29.357Z,83.1
2015-09-26T04:44:29.296Z,82.8
2015-09-26T04:45:29.252Z,82.8
2015-09-26T04:46:29.193Z,83.5
2015-09-26T04:47:29.149Z,83.6
2015-09-26T04:48:29.088Z,83.6
2015-09-26T04:49:29.045Z,83.3
2015-09-26T04:50:28.959Z,83.6
2015-09-26T04:51:28.905Z,83.6
2015-09-26T04:52:28.850Z,83.4
2015-09-26T04:53:28.794Z,82.7
2015-09-26T04:54:28.722Z,82.5
2015-09-26T04:55:28.658Z,82.3
2015-09-26T04:56:28.610Z,82.6
2015-09-26T04:57:28.546Z,82.8
2015-09-26T04:58:28.733Z,81.9
2015-09-26T04:59:28.669Z,81.6
2015-09-26T05:00:28.389Z,82.1
2015-09-26T05:01:28.327Z,82.8
2015-09-26T05:02:28.282Z,82.8
2015-09-26T05:03:28.220Z,83.1
2015-09-26T05:04:28.174Z,83.1
2015-09-26T05:05:28.115Z,82.9
2015-09-26T05:06:28.054Z,83.3
2015-09-26T05:07:28.244Z,83.9
2015-09-26T05:08:27.963Z,83.8
2015-09-26T05:09:27.933Z,84
2015-09-26T05:10:27.843Z,84.3
2015-09-26T05:11:27.798Z,84.4
2015-09-26T05:12:27.738Z,84
2015-09-26T05:13:27.694Z,82.8
2015-09-26T05:14:27.635Z,82.9
2015-09-26T05:15:27.590Z,82.8
2015-09-26T05:16:27.532Z,82.9
2015-09-26T05:17:27.471Z,82.8
2015-09-26T05:18:27.443Z,83.4
2015-09-26T05:19:27.368Z,83.2
2015-09-26T05:20:27.323Z,83.9
2015-09-26T05:21:27.263Z,83.8
2015-09-26T05:22:27.234Z,82.9
2015-09-26T05:23:27.159Z,83
2015-09-26T05:24:27.115Z,83.1
2015-09-26T05:25:27.055Z,84.1
2015-09-26T05:26:27.012Z,84.2
2015-09-26T05:27:26.951Z,84
2015-09-26T05:28:26.907Z,84.4
2015-09-26T05:29:26.863Z,83.7
2015-09-26T05:30:26.804Z,83.4
2015-09-26T05:31:26.743Z,83.4
2015-09-26T05:32:26.684Z,83.4
2015-09-26T05:33:26.639Z,83
2015-09-26T05:34:26.580Z,83.1
2015-09-26T05:35:26.536Z,83.4
2015-09-26T05:36:26.476Z,83.6
2015-09-26T05:37:26.431Z,83.7
2015-09-26T05:38:26.387Z,83.5
2015-09-26T05:39:26.328Z,83.2
2015-09-26T05:40:26.253Z,83.6
2015-09-26T05:41:26.208Z,83.7
2015-09-26T05:42:26.164Z,83.4
2015-09-26T05:43:26.105Z,82.6
2015-09-26T05:44:26.061Z,82.8
2015-09-26T05:45:26.001Z,83.3
2015-09-26T05:46:25.957Z,83.6
2015-09-26T05:47:25.897Z,84
2015-09-26T05:48:25.853Z,83.6
2015-09-26T05:49:25.792Z,84.1
2015-09-26T05:50:25.749Z,83.8
2015-09-26T05:51:25.673Z,83.4
2015-09-26T05:52:25.645Z,83.2
2015-09-26T05:53:25.585Z,82.8
2015-09-26T05:54:25.525Z,83.1
2015-09-26T05:55:25.481Z,83.4
2015-09-26T05:56:25.436Z,83.6
2015-09-26T05:57:25.377Z,83.5
2015-09-26T05:58:25.333Z,84.2
2015-09-26T05:59:25.492Z,84.3
2015-09-26T06:00:25.213Z,84.1
2015-09-26T06:01:25.388Z,83.8
2015-09-26T06:02:25.109Z,83.9
2015-09-26T06:03:25.049Z,84
2015-09-26T06:04:25.006Z,83.7
2015-09-26T06:05:24.947Z,83.6
2015-09-26T06:06:24.902Z,83.8
2015-09-26T06:07:24.842Z,84
2015-09-26T06:08:24.798Z,84
2015-09-26T06:09:24.738Z,84
2015-09-26T06:10:24.913Z,83.7
2015-09-26T06:11:24.632Z,83.4
2015-09-26T06:12:24.587Z,83.8
2015-09-26T06:13:24.527Z,84.1
2015-09-26T06:14:24.482Z,83.5
2015-09-26T06:15:24.423Z,83.5
2015-09-26T06:16:24.568Z,83.7
2015-09-26T06:17:24.554Z,83.6
2015-09-26T06:18:24.259Z,83.7
2015-09-26T06:19:24.200Z,83.1
2015-09-26T06:20:24.157Z,82.8
2015-09-26T06:21:24.112Z,82.6
2015-09-26T06:22:24.052Z,82.4
2015-09-26T06:23:23.992Z,82.1
2015-09-26T06:24:23.948Z,82.2
2015-09-26T06:25:23.904Z,82.5
2015-09-26T06:26:23.859Z,83.1
2015-09-26T06:27:23.800Z,83.6
2015-09-26T06:28:23.771Z,83.8
2015-09-26T06:29:23.681Z,84
2015-09-26T06:30:23.636Z,84.3
2015-09-26T06:31:23.592Z,84
2015-09-26T06:32:23.548Z,84
2015-09-26T06:33:23.473Z,84.5
2015-09-26T06:34:23.428Z,85
2015-09-26T06:35:23.604Z,85.2
2015-09-26T06:36:23.324Z,85.3
2015-09-26T06:37:23.280Z,84.9
2015-09-26T06:38:23.221Z,84.7
2015-09-26T06:39:23.161Z,84.1
2015-09-26T06:40:23.117Z,84.4
2015-09-26T06:41:23.073Z,84.3
2015-09-26T06:42:23.014Z,84.6
2015-09-26T06:43:22.953Z,84.3
2015-09-26T06:44:23.144Z,85.1
2015-09-26T06:45:22.850Z,84.6
2015-09-26T06:46:22.805Z,85
2015-09-26T06:47:22.745Z,84.4
2015-09-26T06:48:22.936Z,84.4
2015-09-26T06:49:22.641Z,84.2
2015-09-26T06:50:22.597Z,84.6
2015-09-26T06:51:22.553Z,84.4
2015-09-26T06:52:22.493Z,84.8
2015-09-26T06:53:22.433Z,84.6
2015-09-26T06:54:22.405Z,84.9
2015-09-26T06:55:22.329Z,84.6
2015-09-26T06:56:22.285Z,84.7
2015-09-26T06:57:22.225Z,84.7
2015-09-26T06:58:22.166Z,84.7
2015-09-26T06:59:22.122Z,84.9
2015-09-26T07:00:22.062Z,84.9
2015-09-26T07:01:22.018Z,85.2
2015-09-26T07:02:22.004Z,85.3
2015-09-26T07:03:21.913Z,84.8
2015-09-26T07:04:21.854Z,84.5
2015-09-26T07:05:21.826Z,85
2015-09-26T07:06:21.766Z,85.7
2015-09-26T07:07:21.706Z,85.2
2015-09-26T07:08:21.662Z,84.9
2015-09-26T07:09:21.602Z,84.9
2015-09-26T07:10:21.558Z,85.2
2015-09-26T07:11:21.513Z,85.2
2015-09-26T07:12:21.454Z,85.4
2015-09-26T07:13:21.394Z,85.5
2015-09-26T07:14:21.350Z,85.6
2015-09-26T07:15:21.290Z,85.7
2015-09-26T07:16:21.246Z,85.7
2015-09-26T07:17:21.201Z,85.6
2015-09-26T07:18:21.142Z,85.6
2015-09-26T07:19:21.095Z,85.4
2015-09-26T07:20:21.034Z,85.5
2015-09-26T07:21:20.976Z,86.3
2015-09-26T07:22:20.931Z,85
2015-09-26T07:23:20.872Z,84.8
2015-09-26T07:24:20.828Z,84.6
2015-09-26T07:25:20.768Z,84.7
2015-09-26T07:26:20.723Z,85.7
2015-09-26T07:27:20.664Z,86.3
2015-09-26T07:28:20.619Z,86.6
2015-09-26T07:29:20.560Z,85.2
2015-09-26T07:30:20.516Z,86.4
2015-09-26T07:31:20.456Z,84.8
2015-09-26T07:32:20.412Z,84.2
2015-09-26T07:33:20.352Z,84.1
2015-09-26T07:34:20.308Z,83.8
2015-09-26T07:35:20.264Z,84.7
2015-09-26T07:36:20.047Z,84.5
2015-09-26T07:37:20.144Z,84.3
2015-09-26T07:38:20.100Z,83.4
2015-09-26T07:39:20.056Z,83.1
2015-09-26T07:40:19.996Z,83
2015-09-26T07:41:19.952Z,84
2015-09-26T07:42:19.892Z,85.3
2015-09-26T07:43:19.848Z,83.9
2015-09-26T07:44:19.804Z,83.3
2015-09-26T07:45:19.760Z,82.9
2015-09-26T07:46:19.700Z,81.9
2015-09-26T07:47:19.641Z,82
2015-09-26T07:48:19.596Z,82.6
2015-09-26T07:49:19.536Z,82.6
2015-09-26T07:50:19.492Z,81.5
2015-09-26T07:51:19.448Z,81.7
2015-09-26T07:52:19.388Z,81.9
2015-09-26T07:53:19.344Z,82
2015-09-26T07:54:19.300Z,82.2
2015-09-26T07:55:19.241Z,81.9
2015-09-26T07:56:18.462Z,80.6
2015-09-26T07:57:19.137Z,81.1
2015-09-26T07:58:19.093Z,80.9
2015-09-26T07:59:19.033Z,81.4
2015-09-26T08:00:18.989Z,81.3
2015-09-26T08:01:19.164Z,81.7
2015-09-26T08:02:18.885Z,81.3
2015-09-26T08:03:18.841Z,81.3
2015-09-26T08:04:18.797Z,80.9
2015-09-26T08:05:18.737Z,80.7
2015-09-26T08:06:18.694Z,81.2
2015-09-26T08:07:18.638Z,80.9
2015-09-26T08:08:18.578Z,81.4
2015-09-26T08:09:18.534Z,80.9
2015-09-26T08:10:18.506Z,80.9
2015-09-26T08:11:18.430Z,80.5
2015-09-26T08:12:18.386Z,80.5
2015-09-26T08:13:18.326Z,80.5
2015-09-26T08:14:18.282Z,80.9
2015-09-26T08:15:18.223Z,80.9
2015-09-26T08:16:18.179Z,80.8
2015-09-26T08:17:18.119Z,79.3
2015-09-26T08:18:18.075Z,79.5
2015-09-26T08:19:18.031Z,80.4
2015-09-26T08:20:17.986Z,80.5
2015-09-26T08:21:17.927Z,80.2
2015-09-26T08:22:17.867Z,80.5
2015-09-26T08:23:18.042Z,80.2
2015-09-26T08:24:17.763Z,79.8
2015-09-26T08:25:17.719Z,79.4
2015-09-26T08:26:17.660Z,79.1
2015-09-26T08:27:17.835Z,79.5
2015-09-26T08:28:17.556Z,79.2
2015-09-26T08:29:17.496Z,79.7
2015-09-26T08:30:17.452Z,79.5
2015-09-26T08:31:17.405Z,77.9
2015-09-26T08:32:17.360Z,78.1
2015-09-26T08:33:17.316Z,78.6
2015-09-26T08:34:17.241Z,77.8
2015-09-26T08:35:17.431Z,79
2015-09-26T08:36:17.137Z,77.7
2015-09-26T08:37:17.093Z,77.3
2015-09-26T08:38:17.048Z,76.9
2015-09-26T08:39:16.989Z,77
2015-09-26T08:40:16.945Z,76.6
2015-09-26T08:41:16.885Z,76.5
2015-09-26T08:42:17.075Z,76.8
2015-09-26T08:43:16.797Z,76.6
2015-09-26T08:44:16.737Z,76.6
2015-09-26T08:45:16.693Z,75.6
2015-09-26T08:46:16.634Z,76.2
2015-09-26T08:47:16.589Z,77
2015-09-26T08:48:16.529Z,76.7
2015-09-26T08:49:16.485Z,77
2015-09-26T08:50:16.426Z,76.3
2015-09-26T08:51:16.381Z,76.8
2015-09-26T08:52:16.337Z,75.6
2015-09-26T08:53:16.278Z,75.8
2015-09-26T08:54:16.234Z,74.9
2015-09-26T08:55:16.189Z,75
2015-09-26T08:56:16.129Z,75.9
2015-09-26T08:57:16.085Z,75.5
2015-09-26T08:58:16.025Z,76.1
2015-09-26T08:59:16.050Z,76.2
2015-09-26T09:00:16.001Z,76
2015-09-26T09:01:15.879Z,76
2015-09-26T09:02:15.834Z,76
2015-09-26T09:03:15.774Z,76.1
2015-09-26T09:04:15.746Z,76
2015-09-26T09:05:15.686Z,73.4
2015-09-26T09:06:15.626Z,73.9
2015-09-26T09:07:15.582Z,74.4
2015-09-26T09:08:15.522Z,73.8
2015-09-26T09:09:15.478Z,74.8
2015-09-26T09:10:15.422Z,73.2
2015-09-26T09:11:15.379Z,73.1
2015-09-26T09:12:15.334Z,73.4
2015-09-26T09:13:15.275Z,73.9
2015-09-26T09:14:15.247Z,73.7
2015-09-26T09:15:15.187Z,74.3
2015-09-26T09:16:15.128Z,74.2
2015-09-26T09:17:15.083Z,73.5
2015-09-26T09:18:15.039Z,73.5
2015-09-26T09:19:14.979Z,73.4
2015-09-26T09:20:14.919Z,72.9
2015-09-26T09:21:14.875Z,72.7
2015-09-26T09:22:14.097Z,73.6
2015-09-26T09:23:14.772Z,73.6
2015-09-26T09:24:14.728Z,71.3
2015-09-26T09:25:14.683Z,72.6
2015-09-26T09:26:14.623Z,72.9
2015-09-26T09:27:14.580Z,72.1
2015-09-26T09:28:14.519Z,71.2
2015-09-26T09:29:14.460Z,72.1
2015-09-26T09:30:14.430Z,72.2
2015-09-26T09:31:14.368Z,71.3
2015-09-26T09:32:14.325Z,71.9
2015-09-26T09:33:14.265Z,71.9
2015-09-26T09:34:14.221Z,72.6
2015-09-26T09:35:14.160Z,71.9
2015-09-26T09:36:14.116Z,71
2015-09-26T09:37:14.291Z,71.2
2015-09-26T09:38:14.013Z,72.6
2015-09-26T09:39:13.969Z,71.8
2015-09-26T09:40:13.925Z,71.6
2015-09-26T09:41:14.115Z,71.5
2015-09-26T09:42:13.821Z,69.6
2015-09-26T09:43:13.777Z,70.5
2015-09-26T09:44:13.951Z,70.2
2015-09-26T09:45:13.672Z,69.7
2015-09-26T09:46:13.629Z,70.5
2015-09-26T09:47:13.569Z,70.4
2015-09-26T09:48:13.524Z,69.8
2015-09-26T09:49:13.699Z,67.1
2015-09-26T09:50:13.421Z,68.6
2015-09-26T09:51:12.626Z,68.2
2015-09-26T09:52:13.316Z,69.6
2015-09-26T09:53:13.273Z,69.4
2015-09-26T09:54:13.213Z,68.9
2015-09-26T09:55:13.172Z,67.6
2015-09-26T09:56:13.347Z,68.1
2015-09-26T09:57:13.069Z,67
2015-09-26T09:58:13.009Z,67.6
2015-09-26T09:59:12.964Z,66.5
2015-09-26T10:00:12.920Z,66.5
2015-09-26T10:01:12.877Z,66.8
2015-09-26T10:02:12.833Z,65.8
2015-09-26T10:03:12.757Z,66.9
2015-09-26T10:04:12.713Z,67.1
2015-09-26T10:05:12.669Z,67
2015-09-26T10:06:12.624Z,66.7
2015-09-26T10:07:12.564Z,67.1
2015-09-26T10:08:12.521Z,67
2015-09-26T10:09:12.460Z,65.8
2015-09-26T10:10:12.416Z,66.2
2015-09-26T10:11:12.357Z,66.6
2015-09-26T10:12:12.313Z,64.7
2015-09-26T10:13:12.269Z,65.2
2015-09-26T10:14:12.208Z,65.7
2015-09-26T10:15:12.180Z,65.3
2015-09-26T10:16:12.120Z,64.9
2015-09-26T10:17:12.077Z,63.4
2015-09-26T10:18:12.016Z,60.9
2015-09-26T10:19:11.957Z,63.3
2015-09-26T10:20:11.944Z,63.4
2015-09-26T10:21:11.869Z,63
2015-09-26T10:22:11.809Z,62.5
2015-09-26T10:23:11.765Z,64.5
2015-09-26T10:24:11.720Z,65.1
2015-09-26T10:25:11.645Z,65.9
2015-09-26T10:26:11.616Z,65.7
2015-09-26T10:27:11.556Z,65.3
2015-09-26T10:28:11.496Z,65.7
2015-09-26T10:29:11.453Z,66.2
2015-09-26T10:30:11.409Z,65.5
2015-09-26T10:31:11.348Z,66
2015-09-26T10:32:11.305Z,65.9
2015-09-26T10:33:11.245Z,66.2
2015-09-26T10:34:11.201Z,66.1
2015-09-26T10:35:11.172Z,66.1
2015-09-26T10:36:11.112Z,65
2015-09-26T10:37:11.053Z,66.1
2015-09-26T10:38:11.006Z,66.8
2015-09-26T10:39:10.962Z,67
2015-09-26T10:40:10.901Z,67.1
2015-09-26T10:41:10.858Z,65.8
2015-09-26T10:42:10.814Z,65.8
2015-09-26T10:43:10.753Z,65.7
2015-09-26T10:44:10.694Z,65.4
2015-09-26T10:45:10.665Z,66.7
2015-09-26T10:46:10.606Z,65
2015-09-26T10:47:10.561Z,64.4
2015-09-26T10:48:10.736Z,65
2015-09-26T10:49:10.457Z,65.5
2015-09-26T10:50:10.647Z,66.3
2015-09-26T10:51:10.353Z,65.8
2015-09-26T10:52:10.309Z,65.9
2015-09-26T10:53:10.266Z,65.2
2015-09-26T10:54:10.221Z,65.1
2015-09-26T10:55:10.161Z,65.7
2015-09-26T10:56:10.117Z,64.9
2015-09-26T10:57:10.057Z,63.9
2015-09-26T10:58:10.014Z,64.6
2015-09-26T10:59:09.953Z,65.8
2015-09-26T11:00:09.910Z,64.2
2015-09-26T11:01:09.866Z,64.4
2015-09-26T11:02:09.805Z,62.9
2015-09-26T11:03:09.761Z,63.1
2015-09-26T11:04:09.702Z,63.5
2015-09-26T11:05:09.657Z,62.9
2015-09-26T11:06:09.597Z,63.8
2015-09-26T11:07:09.554Z,63.9
2015-09-26T11:08:09.510Z,64.9
2015-09-26T11:09:09.465Z,63.7
2015-09-26T11:10:09.421Z,62.9
2015-09-26T11:11:09.360Z,62.6
2015-09-26T11:12:09.302Z,63.2
2015-09-26T11:13:09.491Z,63.4
2015-09-26T11:14:09.432Z,63.8
2015-09-26T11:15:09.153Z,64.4
2015-09-26T11:16:09.110Z,65.1
2015-09-26T11:17:09.049Z,64
2015-09-26T11:18:09.005Z,63.6
2015-09-26T11:19:09.180Z,63.9
2015-09-26T11:20:08.917Z,64.7
2015-09-26T11:21:08.857Z,65.6
2015-09-26T11:22:08.813Z,64.8
2015-09-26T11:23:08.753Z,64
2015-09-26T11:24:08.928Z,62.7
2015-09-26T11:25:08.649Z,62.9
2015-09-26T11:26:08.606Z,63.2
2015-09-26T11:27:08.545Z,62.7
2015-09-26T11:28:08.501Z,63.2
2015-09-26T11:29:08.457Z,64.4
2015-09-26T11:30:08.397Z,64.6
2015-09-26T11:31:08.354Z,65.4
2015-09-26T11:32:08.309Z,66.6
2015-09-26T11:33:08.250Z,66
2015-09-26T11:34:08.205Z,66.4
2015-09-26T11:35:08.161Z,65.5
2015-09-26T11:36:08.101Z,64.3
2015-09-26T11:37:08.057Z,64.2
2015-09-26T11:38:08.014Z,64.7
2015-09-26T11:39:07.953Z,64.8
2015-09-26T11:40:07.909Z,66
2015-09-26T11:41:07.864Z,65.8
2015-09-26T11:42:07.802Z,65.6
2015-09-26T11:43:07.774Z,66.1
2015-09-26T11:44:07.698Z,65.5
2015-09-26T11:45:07.655Z,64.9
2015-09-26T11:46:07.610Z,62.6
2015-09-26T11:47:07.566Z,63.9
2015-09-26T11:48:07.506Z,63.5
2015-09-26T11:49:07.461Z,63.6
2015-09-26T11:50:07.418Z,62.4
2015-09-26T11:51:07.374Z,59.2
2015-09-26T11:52:07.361Z,59
2015-09-26T11:53:07.270Z,60.1
2015-09-26T11:54:07.210Z,59.8
2015-09-26T11:55:07.166Z,60.8
2015-09-26T11:56:07.106Z,61.3
2015-09-26T11:57:07.062Z,60.4
2015-09-26T11:58:07.018Z,60.5
2015-09-26T11:59:06.973Z,59.3
2015-09-26T12:00:06.913Z,60.1
2015-09-26T12:01:06.870Z,60.4
2015-09-26T12:02:06.826Z,59.4
2015-09-26T12:03:06.766Z,59.4
2015-09-26T12:04:06.722Z,57.6
2015-09-26T12:05:06.678Z,55
2015-09-26T12:06:05.868Z,56.5
2015-09-26T12:07:06.574Z,54.8
2015-09-26T12:08:06.530Z,54.4
2015-09-26T12:09:06.454Z,56.2
2015-09-26T12:10:06.410Z,57
2015-09-26T12:11:06.366Z,54.9
2015-09-26T12:12:06.321Z,55.5
2015-09-26T12:13:06.497Z,55
2015-09-26T12:14:06.218Z,55.6
2015-09-26T12:15:06.158Z,54.7
2015-09-26T12:16:06.114Z,55
2015-09-26T12:17:06.070Z,53.3
2015-09-26T12:18:06.010Z,51
2015-09-26T12:19:05.966Z,51.3
2015-09-26T12:20:05.921Z,52.3
2015-09-26T12:21:05.862Z,51.8
2015-09-26T12:22:05.801Z,51.6
2015-09-26T12:23:05.759Z,53.4
2015-09-26T12:24:05.715Z,54.6
2015-09-26T12:25:05.654Z,55.8
2015-09-26T12:26:05.595Z,54.1
2015-09-26T12:27:05.565Z,54.9
2015-09-26T12:28:05.490Z,55.6
2015-09-26T12:29:05.462Z,55.7
2015-09-26T12:30:05.402Z,56.9
2015-09-26T12:31:05.358Z,57.8
2015-09-26T12:32:05.298Z,58.5
2015-09-26T12:33:05.253Z,58.9
2015-09-26T12:34:05.210Z,59.5
2015-09-26T12:35:05.150Z,59.7
2015-09-26T12:36:05.137Z,60.5
2015-09-26T12:37:05.061Z,60.1
2015-09-26T12:38:05.002Z,59.7
2015-09-26T12:39:04.958Z,60.2
2015-09-26T12:40:04.914Z,61.2
2015-09-26T12:41:04.120Z,61.7
2015-09-26T12:42:04.811Z,62.2
2015-09-26T12:43:04.750Z,62.3
2015-09-26T12:44:04.721Z,63.8
2015-09-26T12:45:04.662Z,63.3
2015-09-26T12:46:04.617Z,63.1
2015-09-26T12:47:04.558Z,63.7
2015-09-26T12:48:04.748Z,63
2015-09-26T12:49:04.452Z,62.9
2015-09-26T12:50:04.438Z,62.7
2015-09-26T12:51:04.363Z,63.2
2015-09-26T12:52:04.319Z,63
2015-09-26T12:53:04.258Z,62.1
2015-09-26T12:54:04.216Z,63.2
2015-09-26T12:55:04.389Z,62
2015-09-26T12:56:04.127Z,62.7
2015-09-26T12:57:04.082Z,63.2
2015-09-26T12:58:04.022Z,63
2015-09-26T12:59:03.963Z,63.4
2015-09-26T13:00:03.919Z,62.8
2015-09-26T13:01:04.093Z,63.4
2015-09-26T13:02:04.049Z,63.3
2015-09-26T13:03:03.786Z,64
2015-09-26T13:04:03.726Z,63.2
2015-09-26T13:05:03.682Z,63.6
2015-09-26T13:06:03.623Z,63.9
2015-09-26T13:07:03.579Z,61.4
2015-09-26T13:08:03.534Z,63.1
2015-09-26T13:09:03.474Z,61.4
2015-09-26T13:10:03.429Z,62.9
2015-09-26T13:11:03.387Z,62.7
2015-09-26T13:12:03.342Z,62.6
2015-09-26T13:13:03.532Z,62.5
2015-09-26T13:14:03.237Z,61.6
2015-09-26T13:15:03.178Z,62.3
2015-09-26T13:16:03.134Z,63.5
2015-09-26T13:17:03.090Z,63.8
2015-09-26T13:18:03.030Z,63.7
2015-09-26T13:19:02.986Z,63.2
2015-09-26T13:20:02.786Z,63.7
2015-09-26T13:21:03.117Z,64.2
2015-09-26T13:22:02.837Z,64.5
2015-09-26T13:23:02.778Z,64.4